Time;durP1;ratioP1;P1;durP2;ratioP2;P2;SDS_P1;SDS_P2;PMS_P1;PMS_P2;Temp;Humidity;BMP_temperature;BMP_pressure;BME280_temperature;BME280_humidity;BME280_pressure;Samples;Min_cycle;Max_cycle;Signal;HPM_P1;HPM_P2
2023/12/26 00:01:17;;;;;;;1.93;1.53;;;;;;;9.24;100.00;95290.97;7401870;19;20381;-92
2023/12/26 00:03:58;;;;;;;1.83;1.50;;;;;;;9.47;100.00;95330.78;7400734;19;20735;-92
2023/12/26 00:06:43;;;;;;;1.23;1.13;;;;;;;9.57;100.00;95347.22;7401998;19;20377;-91
2023/12/26 00:09:24;;;;;;;2.90;1.40;;;;;;;9.36;100.00;95302.63;7402717;19;20365;-92
2023/12/26 00:12:06;;;;;;;1.30;1.20;;;;;;;9.29;100.00;95297.09;7401547;19;20397;-91
2023/12/26 00:14:47;;;;;;;1.60;1.40;;;;;;;9.46;100.00;95307.53;7402381;19;20435;-91
2023/12/26 00:17:28;;;;;;;1.50;1.40;;;;;;;9.59;100.00;95340.59;7401696;19;20388;-92
2023/12/26 00:20:09;;;;;;;1.40;1.30;;;;;;;9.55;100.00;95326.56;7401590;19;20376;-92
2023/12/26 00:22:50;;;;;;;1.67;1.37;;;;;;;9.41;100.00;95305.84;7399259;19;20452;-92
2023/12/26 00:25:32;;;;;;;1.97;1.20;;;;;;;9.70;100.00;95344.38;7402192;19;20364;-91
2023/12/26 00:28:14;;;;;;;1.20;1.10;;;;;;;8.79;100.00;95209.56;7402188;19;20380;-91
2023/12/26 00:30:55;;;;;;;1.33;1.20;;;;;;;9.91;100.00;95380.38;7401291;19;20381;-92
2023/12/26 00:33:36;;;;;;;1.70;1.57;;;;;;;9.49;100.00;95309.50;7401948;19;20377;-93
2023/12/26 00:36:20;;;;;;;1.10;1.00;;;;;;;9.64;100.00;95334.41;7401667;19;20485;-92
2023/12/26 00:39:01;;;;;;;1.60;1.50;;;;;;;9.10;100.00;95255.63;7401893;19;20397;-91
2023/12/26 00:41:42;;;;;;;1.00;0.90;;;;;;;9.29;100.00;95287.41;7400230;19;20715;-91
2023/12/26 00:44:23;;;;;;;2.03;1.60;;;;;;;9.64;100.00;95337.03;7400225;19;20723;-92
2023/12/26 00:47:04;;;;;;;1.67;1.30;;;;;;;8.54;100.00;95187.63;7400968;19;20385;-91
2023/12/26 00:49:46;;;;;;;1.40;1.30;;;;;;;9.54;100.00;95327.66;7400987;19;20384;-93
2023/12/26 00:52:27;;;;;;;1.33;1.23;;;;;;;9.44;100.00;95309.66;7399657;19;20400;-92
2023/12/26 00:55:08;;;;;;;1.50;1.40;;;;;;;8.83;100.00;95215.69;7401990;19;20379;-92
2023/12/26 00:57:49;;;;;;;1.63;1.53;;;;;;;9.38;100.00;95295.22;7401675;19;20376;-91
2023/12/26 01:00:30;;;;;;;1.30;1.20;;;;;;;9.54;100.00;95325.81;7401292;19;20398;-91
2023/12/26 01:03:12;;;;;;;1.93;1.83;;;;;;;9.12;100.00;95262.06;7396117;19;20421;-92
2023/12/26 01:05:53;;;;;;;1.43;1.33;;;;;;;9.31;100.00;95287.09;7400788;19;20385;-91
2023/12/26 01:08:34;;;;;;;1.93;1.23;;;;;;;9.63;100.00;95338.13;7400976;19;20393;-92
2023/12/26 01:11:15;;;;;;;4.00;1.67;;;;;;;9.26;100.00;95282.81;7400448;19;20384;-91
2023/12/26 01:13:56;;;;;;;3.47;1.40;;;;;;;9.52;100.00;95329.84;7399626;19;20364;-92
2023/12/26 01:16:37;;;;;;;1.73;1.50;;;;;;;9.72;100.00;95349.34;7399568;19;20372;-91
2023/12/26 01:19:19;;;;;;;2.93;1.50;;;;;;;9.25;100.00;95278.66;7399697;19;20384;-92
2023/12/26 01:22:00;;;;;;;1.87;1.30;;;;;;;9.23;100.00;95263.25;7399077;19;20413;-91
2023/12/26 01:24:41;;;;;;;1.90;1.30;;;;;;;9.06;100.00;95245.00;7398625;19;20345;-91
2023/12/26 01:27:23;;;;;;;1.13;1.03;;;;;;;9.46;100.00;95294.44;7401024;19;20670;-92
2023/12/26 01:30:04;;;;;;;1.30;1.20;;;;;;;9.27;100.00;95257.38;7399712;19;20387;-91
2023/12/26 01:32:46;;;;;;;1.53;1.20;;;;;;;9.34;100.00;95276.78;7398084;19;20694;-91
2023/12/26 01:35:27;;;;;;;2.10;1.23;;;;;;;9.42;100.00;95291.66;7398887;19;20372;-92
2023/12/26 01:38:08;;;;;;;1.63;1.30;;;;;;;9.97;100.00;95360.75;7398926;19;20430;-92
2023/12/26 01:40:49;;;;;;;1.00;0.87;;;;;;;9.59;100.00;95305.78;7399341;19;20392;-92
2023/12/26 01:43:30;;;;;;;1.50;0.90;;;;;;;9.40;100.00;95267.66;7398357;19;20395;-91
2023/12/26 01:46:12;;;;;;;2.03;1.37;;;;;;;9.46;100.00;95281.34;7399326;19;20392;-91
2023/12/26 01:48:55;;;;;;;1.47;1.37;;;;;;;9.31;100.00;95246.00;7399633;19;20523;-92
2023/12/26 01:51:36;;;;;;;1.60;1.50;;;;;;;9.74;100.00;95313.88;7398977;19;20411;-92
2023/12/26 01:54:18;;;;;;;1.53;1.13;;;;;;;8.93;100.00;95197.03;7399281;19;20429;-91
2023/12/26 01:57:00;;;;;;;1.37;0.93;;;;;;;8.62;100.00;95147.59;7399236;19;20385;-92
2023/12/26 01:59:42;;;;;;;1.20;1.10;;;;;;;9.32;100.00;95254.59;7399085;19;20372;-91
2023/12/26 02:02:28;;;;;;;1.40;1.17;;;;;;;10.14;100.00;95368.53;7397133;19;20409;-92
2023/12/26 02:05:12;;;;;;;2.83;1.30;;;;;;;9.26;100.00;95233.06;7398896;19;20364;-92
2023/12/26 02:07:53;;;;;;;1.90;1.00;;;;;;;10.13;100.00;95375.63;7398490;19;20372;-91
2023/12/26 02:10:35;;;;;;;1.17;1.07;;;;;;;9.59;100.00;95288.22;7397987;19;20356;-92
2023/12/26 02:13:16;;;;;;;1.20;1.10;;;;;;;9.58;100.00;95286.69;7396490;19;20400;-91
2023/12/26 02:16:05;;;;;;;1.30;1.10;;;;;;;9.40;100.00;95251.16;7397477;19;20368;-91
2023/12/26 02:18:47;;;;;;;1.30;1.20;;;;;;;9.58;100.00;95276.19;7400654;19;20392;-91
2023/12/26 02:21:28;;;;;;;0.97;0.97;;;;;;;10.15;100.00;95375.31;7397397;19;20396;-91
2023/12/26 02:24:10;;;;;;;1.10;1.00;;;;;;;9.36;100.00;95253.66;7395756;19;20420;-92
2023/12/26 02:26:55;;;;;;;1.57;1.17;;;;;;;9.63;100.00;95291.72;7396176;19;20356;-90
2023/12/26 02:29:37;;;;;;;1.57;1.37;;;;;;;9.69;100.00;95308.78;7398079;19;20444;-92
2023/12/26 02:32:21;;;;;;;1.00;0.90;;;;;;;9.49;100.00;95265.75;7396581;19;20477;-91
2023/12/26 02:35:05;;;;;;;1.20;1.10;;;;;;;10.12;100.00;95358.38;7397584;19;20385;-91
2023/12/26 02:37:49;;;;;;;1.90;1.23;;;;;;;9.17;100.00;95235.72;7397945;19;20377;-92
2023/12/26 02:40:30;;;;;;;2.53;1.20;;;;;;;9.60;100.00;95296.84;7397903;19;20372;-92
2023/12/26 02:43:12;;;;;;;0.97;0.80;;;;;;;9.28;100.00;95251.84;7395184;19;20428;-92
2023/12/26 02:45:53;;;;;;;2.20;1.60;;;;;;;9.50;100.00;95287.47;7398219;19;20367;-92
2023/12/26 02:48:35;;;;;;;1.53;1.30;;;;;;;9.47;100.00;95283.66;7400563;19;20388;-92
2023/12/26 02:51:17;;;;;;;1.73;1.20;;;;;;;9.80;100.00;95330.94;7397046;19;20357;-91
2023/12/26 02:53:58;;;;;;;4.30;1.30;;;;;;;9.46;100.00;95281.34;7398055;19;20384;-91
2023/12/26 02:56:39;;;;;;;3.53;1.30;;;;;;;8.88;100.00;95204.28;7397082;19;20373;-92
2023/12/26 02:59:20;;;;;;;1.43;1.33;;;;;;;9.50;100.00;95290.09;7397945;19;20448;-92
2023/12/26 03:02:02;;;;;;;1.67;0.90;;;;;;;9.49;100.00;95289.31;7396593;19;20412;-92
2023/12/26 03:04:43;;;;;;;0.93;0.83;;;;;;;9.80;100.00;95330.16;7395087;19;20377;-92
2023/12/26 03:07:24;;;;;;;0.90;0.90;;;;;;;9.66;100.00;95309.44;7396571;19;20562;-92
2023/12/26 03:10:09;;;;;;;1.13;1.03;;;;;;;9.70;100.00;95333.91;7396522;19;20398;-92
2023/12/26 03:12:50;;;;;;;1.57;1.37;;;;;;;9.28;100.00;95266.78;7395622;19;20922;-91
2023/12/26 03:15:31;;;;;;;1.20;1.10;;;;;;;9.71;100.00;95340.69;7396491;19;20452;-90
2023/12/26 03:18:12;;;;;;;1.23;1.13;;;;;;;9.49;100.00;95302.44;7396890;19;20375;-91
2023/12/26 03:20:53;;;;;;;1.10;1.00;;;;;;;9.28;100.00;95291.09;7396128;19;20838;-91
2023/12/26 03:23:34;;;;;;;1.73;1.60;;;;;;;9.33;100.00;95296.19;7394880;19;20421;-91
2023/12/26 03:26:16;;;;;;;3.93;1.37;;;;;;;9.11;100.00;95263.16;7398648;19;20394;-91
2023/12/26 03:28:57;;;;;;;1.33;1.23;;;;;;;9.08;100.00;95283.94;7403456;19;20423;-91
2023/12/26 03:31:45;;;;;;;1.10;1.00;;;;;;;9.09;100.00;95272.41;7403075;19;20409;-93
2023/12/26 03:34:26;;;;;;;1.40;0.90;;;;;;;9.16;100.00;95307.47;7403168;19;20383;-92
2023/12/26 03:37:07;;;;;;;1.00;1.00;;;;;;;8.81;100.00;95251.88;7403096;19;20733;-91
2023/12/26 03:39:48;;;;;;;1.00;0.80;;;;;;;9.18;100.00;95304.56;7402826;19;20440;-91
2023/12/26 03:42:31;;;;;;;1.10;1.00;;;;;;;9.34;100.00;95331.00;7401639;19;20727;-91
2023/12/26 03:45:13;;;;;;;2.73;1.40;;;;;;;8.92;100.00;95262.75;7402585;19;20365;-92
2023/12/26 03:47:54;;;;;;;1.40;1.30;;;;;;;9.45;100.00;95346.06;7403067;19;20372;-91
2023/12/26 03:50:36;;;;;;;3.10;1.27;;;;;;;8.65;100.00;95232.53;7428055;19;20369;-92
2023/12/26 03:53:17;;;;;;;2.40;1.03;;;;;;;9.18;100.00;95313.19;7429690;19;20417;-92
2023/12/26 03:55:58;;;;;;;1.30;1.20;;;;;;;8.69;100.00;95251.75;7431948;19;20388;-91
2023/12/26 03:58:39;;;;;;;1.30;0.93;;;;;;;8.42;100.00;95203.19;7432248;19;20389;-90
2023/12/26 04:01:21;;;;;;;1.70;1.10;;;;;;;8.90;100.00;95277.97;7432297;19;20381;-91
2023/12/26 04:04:03;;;;;;;0.90;0.90;;;;;;;9.56;100.00;95393.59;7428228;19;20384;-91
2023/12/26 04:06:44;;;;;;;0.83;0.80;;;;;;;8.74;100.00;95282.94;7421049;19;20380;-92
2023/12/26 04:09:25;;;;;;;0.90;0.80;;;;;;;8.65;100.00;95269.91;7414679;19;20444;-91
2023/12/26 04:12:07;;;;;;;3.80;1.20;;;;;;;8.11;100.00;95195.56;7401350;19;20488;-91
2023/12/26 04:14:49;;;;;;;0.80;0.80;;;;;;;8.93;100.00;95303.56;7402356;19;20384;-91
2023/12/26 04:17:30;;;;;;;3.00;0.80;;;;;;;8.27;100.00;95214.13;7402529;19;20672;-92
2023/12/26 04:20:11;;;;;;;0.90;0.80;;;;;;;9.00;100.00;95340.47;7401506;19;20364;-92
2023/12/26 04:22:53;;;;;;;0.80;0.80;;;;;;;8.95;100.00;95319.69;7399330;19;20428;-92
2023/12/26 04:25:34;;;;;;;1.53;1.23;;;;;;;8.50;100.00;95266.97;7403259;19;20365;-92
2023/12/26 04:28:15;;;;;;;0.90;0.80;;;;;;;8.74;100.00;95303.09;7401327;19;20883;-92
2023/12/26 04:30:56;;;;;;;0.93;0.93;;;;;;;8.76;100.00;95319.25;7401538;19;20392;-92
2023/12/26 04:33:37;;;;;;;1.20;1.00;;;;;;;8.82;100.00;95333.72;7402063;19;20405;-91
2023/12/26 04:36:19;;;;;;;1.53;1.00;;;;;;;8.93;100.00;95354.03;7401424;19;20388;-91
2023/12/26 04:39:00;;;;;;;0.70;0.70;;;;;;;8.43;100.00;95291.00;7401742;19;20703;-91
2023/12/26 04:41:41;;;;;;;1.23;0.90;;;;;;;8.48;100.00;95296.06;7400954;19;20532;-92
2023/12/26 04:44:23;;;;;;;1.00;0.80;;;;;;;8.90;100.00;95372.94;7400256;19;20401;-91
2023/12/26 04:47:05;;;;;;;0.90;0.70;;;;;;;8.75;100.00;95351.72;7401928;19;20388;-92
2023/12/26 04:49:46;;;;;;;1.23;0.97;;;;;;;8.80;100.00;95367.28;7402511;19;20410;-92
2023/12/26 04:52:27;;;;;;;1.90;0.80;;;;;;;8.48;100.00;95316.22;7402227;19;20417;-91
2023/12/26 04:55:08;;;;;;;1.23;0.90;;;;;;;8.85;100.00;95372.34;7406003;19;20373;-91
2023/12/26 04:57:50;;;;;;;0.80;0.80;;;;;;;8.49;100.00;95338.66;7400833;19;20388;-91
2023/12/26 05:00:31;;;;;;;1.20;1.10;;;;;;;8.90;100.00;95401.72;7400314;19;20380;-92
2023/12/26 05:03:13;;;;;;;2.03;1.40;;;;;;;8.72;100.00;95366.19;7398479;19;20424;-91
2023/12/26 05:05:55;;;;;;;1.77;1.47;;;;;;;8.81;100.00;95385.28;7400378;19;20399;-92
2023/12/26 05:08:40;;;;;;;1.40;1.30;;;;;;;9.18;100.00;95430.22;7400278;19;20377;-92
2023/12/26 05:11:22;;;;;;;4.33;2.20;;;;;;;9.33;100.00;95434.97;7399624;19;20392;-92
2023/12/26 05:14:03;;;;;;;1.93;1.10;;;;;;;8.41;100.00;95305.47;7400542;19;20395;-92
2023/12/26 05:16:46;;;;;;;1.90;1.30;;;;;;;8.65;100.00;95342.38;7399710;19;20381;-92
2023/12/26 05:19:27;;;;;;;1.50;1.40;;;;;;;8.77;100.00;95355.56;7399747;19;20376;-91
2023/12/26 05:22:08;;;;;;;1.40;1.30;;;;;;;8.63;100.00;95332.19;7398767;19;20724;-92
2023/12/26 05:24:49;;;;;;;4.33;3.20;;;;;;;8.68;100.00;95330.53;7397908;19;20457;-92
2023/12/26 05:27:31;;;;;;;1.97;1.57;;;;;;;9.35;100.00;95427.56;7399272;19;20857;-91
2023/12/26 05:30:14;;;;;;;2.97;2.30;;;;;;;8.72;100.00;95342.66;7399111;19;20369;-92
2023/12/26 05:32:55;;;;;;;1.83;1.60;;;;;;;8.62;100.00;95333.28;7397843;19;20694;-92
2023/12/26 05:35:38;;;;;;;3.00;1.83;;;;;;;8.33;100.00;95281.63;7399473;19;20376;-92
2023/12/26 05:38:19;;;;;;;2.83;1.07;;;;;;;9.13;100.00;95397.09;7399192;19;20385;-91
2023/12/26 05:41:05;;;;;;;6.00;1.37;;;;;;;8.61;100.00;95308.19;7398927;19;20376;-93
2023/12/26 05:43:47;;;;;;;2.10;1.50;;;;;;;9.36;100.00;95416.00;7397856;19;20450;-92
2023/12/26 05:46:29;;;;;;;3.43;1.57;;;;;;;9.02;100.00;95358.47;7399108;19;20365;-92
2023/12/26 05:49:10;;;;;;;1.50;1.20;;;;;;;9.09;100.00;95370.00;7397759;19;20376;-91
2023/12/26 05:51:51;;;;;;;3.10;1.50;;;;;;;8.93;100.00;95348.03;7399857;19;20502;-92
2023/12/26 05:54:33;;;;;;;2.27;1.23;;;;;;;8.69;100.00;95304.06;7399536;19;20376;-91
2023/12/26 05:57:15;;;;;;;1.57;1.40;;;;;;;8.67;100.00;95314.06;7399319;19;20869;-91
2023/12/26 05:59:56;;;;;;;3.67;1.23;;;;;;;8.82;100.00;95331.88;7398663;19;20423;-91
2023/12/26 06:02:41;;;;;;;3.53;1.90;;;;;;;8.62;100.00;95311.59;7397720;19;20413;-91
2023/12/26 06:05:23;;;;;;;2.30;1.70;;;;;;;8.86;100.00;95340.66;7398839;19;20376;-92
2023/12/26 06:08:05;;;;;;;2.43;1.67;;;;;;;8.44;100.00;95284.69;7398195;19;20389;-91
2023/12/26 06:10:46;;;;;;;2.90;2.47;;;;;;;8.69;100.00;95334.66;7398628;19;20380;-92
2023/12/26 06:13:27;;;;;;;5.13;1.30;;;;;;;8.28;100.00;95281.00;7397573;19;20464;-91
2023/12/26 06:16:09;;;;;;;2.03;1.47;;;;;;;8.43;100.00;95300.69;7398470;19;20384;-92
2023/12/26 06:18:50;;;;;;;1.87;1.57;;;;;;;9.03;100.00;95394.03;7397485;19;20381;-92
2023/12/26 06:21:32;;;;;;;4.23;1.97;;;;;;;8.73;100.00;95357.28;7396933;19;20400;-91
2023/12/26 06:24:13;;;;;;;1.50;1.40;;;;;;;8.91;100.00;95374.50;7396228;19;20488;-92
2023/12/26 06:26:54;;;;;;;4.93;1.80;;;;;;;8.74;100.00;95353.59;7397724;19;20373;-92
2023/12/26 06:29:35;;;;;;;1.90;1.63;;;;;;;9.11;100.00;95407.13;7398716;19;20373;-91
2023/12/26 06:32:16;;;;;;;4.93;1.13;;;;;;;8.95;100.00;95383.28;7396580;19;20452;-92
2023/12/26 06:34:58;;;;;;;1.73;1.53;;;;;;;8.92;100.00;95393.59;7397307;19;20455;-92
2023/12/26 06:37:40;;;;;;;3.60;1.40;;;;;;;8.71;100.00;95362.06;7396955;19;20392;-92
2023/12/26 06:40:21;;;;;;;2.83;1.87;;;;;;;8.91;100.00;95389.44;7397743;19;20369;-92
2023/12/26 06:43:02;;;;;;;5.00;1.80;;;;;;;8.51;100.00;95333.91;7395274;19;20416;-92
2023/12/26 06:45:44;;;;;;;2.40;1.77;;;;;;;8.56;100.00;95342.38;7397006;19;20424;-92
2023/12/26 06:48:25;;;;;;;2.53;1.60;;;;;;;8.61;100.00;95367.59;7397197;19;20385;-92
2023/12/26 06:51:06;;;;;;;1.73;1.63;;;;;;;9.11;100.00;95424.66;7397271;19;20372;-93
2023/12/26 06:53:48;;;;;;;3.90;1.40;;;;;;;8.87;100.00;95380.66;7396640;19;20877;-92
2023/12/26 06:56:29;;;;;;;7.50;2.07;;;;;;;8.88;100.00;95408.34;7396981;19;20385;-93
2023/12/26 06:59:10;;;;;;;4.37;1.60;;;;;;;9.20;100.00;95468.09;7396833;19;20744;-92
2023/12/26 07:01:51;;;;;;;1.33;1.23;;;;;;;8.86;100.00;95410.53;7402439;19;20412;-93
2023/12/26 07:04:32;;;;;;;5.23;2.07;;;;;;;8.83;100.00;95406.69;7401874;19;20397;-91
2023/12/26 07:07:13;;;;;;;4.00;1.70;;;;;;;8.80;100.00;95402.06;7404680;19;20384;-92
2023/12/26 07:09:55;;;;;;;1.67;1.57;;;;;;;8.74;100.00;95394.66;7403713;19;20401;-93
2023/12/26 07:12:37;;;;;;;7.40;1.50;;;;;;;9.47;100.00;95500.25;7401685;19;20415;-92
2023/12/26 07:15:19;;;;;;;5.70;2.70;;;;;;;8.94;100.00;95428.84;7403870;19;20793;-92
2023/12/26 07:18:00;;;;;;;8.67;4.27;;;;;;;9.52;100.00;95523.66;7403648;19;20738;-92
2023/12/26 07:20:41;;;;;;;4.67;1.77;;;;;;;8.91;100.00;95433.94;7403330;19;20384;-92
2023/12/26 07:23:22;;;;;;;2.13;1.50;;;;;;;9.32;100.00;95493.66;7400257;19;20440;-92
2023/12/26 07:26:04;;;;;;;3.70;2.40;;;;;;;9.22;100.00;95484.25;7403188;19;20384;-92
2023/12/26 07:28:46;;;;;;;1.90;1.63;;;;;;;8.98;100.00;95442.06;7403640;19;20392;-92
2023/12/26 07:31:27;;;;;;;6.70;2.30;;;;;;;8.97;100.00;95450.22;7403057;19;20463;-92
2023/12/26 07:34:11;;;;;;;3.67;1.87;;;;;;;9.38;100.00;95523.81;7403884;19;20368;-92
2023/12/26 07:36:52;;;;;;;2.93;1.90;;;;;;;9.22;100.00;95515.66;7403406;19;20371;-92
2023/12/26 07:39:33;;;;;;;2.83;1.50;;;;;;;9.09;100.00;95500.88;7402853;19;20384;-92
2023/12/26 07:42:14;;;;;;;4.10;2.23;;;;;;;9.44;100.00;95550.63;7401510;19;20400;-92
2023/12/26 07:44:56;;;;;;;8.70;4.70;;;;;;;9.77;100.00;95596.22;7399909;19;20854;-92
2023/12/26 07:47:37;;;;;;;4.37;1.53;;;;;;;9.16;100.00;95513.50;7403018;19;20384;-92
2023/12/26 07:50:19;;;;;;;4.30;1.63;;;;;;;9.20;100.00;95527.53;7402617;19;20371;-92
2023/12/26 07:53:00;;;;;;;3.00;1.80;;;;;;;9.16;100.00;95508.25;7400516;19;20921;-92
2023/12/26 07:55:41;;;;;;;4.20;2.10;;;;;;;9.83;100.00;95623.81;7403033;19;20367;-93
2023/12/26 07:58:22;;;;;;;3.27;1.60;;;;;;;9.48;100.00;95564.66;7402858;19;20368;-92
2023/12/26 08:01:04;;;;;;;3.47;1.73;;;;;;;9.33;100.00;95539.72;7401978;19;20376;-92
2023/12/26 08:03:45;;;;;;;2.17;1.73;;;;;;;9.02;100.00;95500.56;7401824;19;20387;-91
2023/12/26 08:06:27;;;;;;;3.17;1.50;;;;;;;9.66;100.00;95575.88;7402214;19;20857;-91
2023/12/26 08:09:08;;;;;;;1.90;1.50;;;;;;;9.43;100.00;95559.56;7401934;19;20409;-93
2023/12/26 08:11:49;;;;;;;2.40;1.73;;;;;;;9.08;100.00;95509.06;7399811;19;20444;-93
2023/12/26 08:14:30;;;;;;;2.70;1.70;;;;;;;9.11;100.00;95527.53;7401846;19;20387;-92
2023/12/26 08:17:12;;;;;;;4.50;1.70;;;;;;;9.72;100.00;95627.84;7401849;19;20902;-92
2023/12/26 08:19:53;;;;;;;8.90;3.47;;;;;;;9.26;100.00;95542.00;7401473;19;20444;-92
2023/12/26 08:22:34;;;;;;;6.83;1.73;;;;;;;9.01;100.00;95500.88;7400265;19;20413;-92
2023/12/26 08:25:16;;;;;;;4.33;3.57;;;;;;;9.11;100.00;95526.75;7402037;19;20377;-92
2023/12/26 08:27:57;;;;;;;7.73;1.83;;;;;;;8.98;100.00;95496.25;7401114;19;20396;-92
2023/12/26 08:30:38;;;;;;;1.60;1.10;;;;;;;8.60;100.00;95437.44;7401811;19;20849;-91
2023/12/26 08:33:19;;;;;;;3.90;1.70;;;;;;;9.18;100.00;95535.69;7398829;19;20444;-92
2023/12/26 08:36:01;;;;;;;11.90;5.37;;;;;;;8.77;100.00;95488.22;7401277;19;20740;-92
2023/12/26 08:38:43;;;;;;;10.07;6.77;;;;;;;8.85;100.00;95488.25;7401643;19;20372;-92
2023/12/26 08:41:24;;;;;;;25.67;3.20;;;;;;;9.26;100.00;95568.19;7401101;19;20505;-92
2023/12/26 08:44:06;;;;;;;2.43;2.10;;;;;;;9.79;100.00;95656.97;7399347;19;20389;-92
2023/12/26 08:46:50;;;;;;;2.20;1.43;;;;;;;9.47;100.00;95611.03;7400551;19;20403;-92
2023/12/26 08:49:31;;;;;;;2.90;1.77;;;;;;;8.71;100.00;95481.63;7400734;19;20376;-92
2023/12/26 08:52:13;;;;;;;3.20;2.40;;;;;;;9.18;100.00;95574.97;7399332;19;20487;-92
2023/12/26 08:54:55;;;;;;;2.60;1.80;;;;;;;9.34;100.00;95595.47;7401042;19;20380;-92
2023/12/26 08:57:36;;;;;;;4.00;1.57;;;;;;;9.39;100.00;95603.16;7400279;19;20380;-92
2023/12/26 09:00:17;;;;;;;5.10;1.93;;;;;;;9.25;100.00;95585.75;7400036;19;20380;-92
2023/12/26 09:02:58;;;;;;;4.47;1.73;;;;;;;9.22;100.00;95581.13;7398804;19;20942;-92
2023/12/26 09:05:40;;;;;;;3.33;2.27;;;;;;;9.60;100.00;95653.13;7400786;19;20460;-92
2023/12/26 09:08:21;;;;;;;3.33;1.47;;;;;;;9.17;100.00;95585.72;7399751;19;20392;-93
2023/12/26 09:11:03;;;;;;;2.80;2.30;;;;;;;8.88;100.00;95550.44;7399769;19;20393;-92
2023/12/26 09:13:44;;;;;;;3.90;2.07;;;;;;;9.48;100.00;95645.84;7399479;19;20414;-92
2023/12/26 09:16:25;;;;;;;3.90;1.97;;;;;;;9.16;100.00;95602.50;7399403;19;20377;-93
2023/12/26 09:19:06;;;;;;;4.10;1.97;;;;;;;9.50;100.00;95659.41;7399429;19;20372;-92
2023/12/26 09:21:47;;;;;;;3.73;1.57;;;;;;;9.80;100.00;95718.00;7398879;19;20873;-92
2023/12/26 09:24:29;;;;;;;3.90;2.50;;;;;;;9.29;100.00;95629.63;7394896;19;20408;-92
2023/12/26 09:27:10;;;;;;;3.40;2.37;;;;;;;9.39;100.00;95656.31;7400027;19;20392;-92
2023/12/26 09:29:51;;;;;;;4.10;2.20;;;;;;;9.32;100.00;95642.91;7400017;19;20381;-92
2023/12/26 09:32:32;;;;;;;6.10;2.57;;;;;;;9.43;100.00;95672.19;7397969;19;20419;-92
2023/12/26 09:35:13;;;;;;;12.50;4.40;;;;;;;9.35;100.00;95658.00;7398845;19;20910;-92
2023/12/26 09:37:54;;;;;;;5.27;2.67;;;;;;;9.51;100.00;95676.66;7399230;19;20400;-92
2023/12/26 09:40:37;;;;;;;5.70;2.20;;;;;;;9.39;100.00;95672.03;7398700;19;20673;-89
2023/12/26 09:43:18;;;;;;;4.30;2.07;;;;;;;8.96;100.00;95611.72;7396533;19;20436;-88
2023/12/26 09:46:01;;;;;;;9.27;3.73;;;;;;;9.46;100.00;95689.91;7398185;19;20385;-89
2023/12/26 09:48:42;;;;;;;8.13;2.40;;;;;;;9.19;100.00;95647.19;7398113;19;20368;-89
2023/12/26 09:51:24;;;;;;;4.30;2.97;;;;;;;9.20;100.00;95659.22;7397228;19;20422;-90
2023/12/26 09:54:06;;;;;;;5.40;3.00;;;;;;;9.01;100.00;95624.66;7397949;19;20405;-89
2023/12/26 09:56:48;;;;;;;3.43;2.57;;;;;;;8.91;100.00;95612.66;7397846;19;20375;-89
2023/12/26 09:59:29;;;;;;;2.20;1.47;;;;;;;8.77;100.00;95605.94;7397291;19;20380;-88
2023/12/26 10:02:14;;;;;;;3.10;2.13;;;;;;;8.55;100.00;95555.28;7397044;19;20393;-88
2023/12/26 10:04:55;;;;;;;6.07;2.80;;;;;;;8.92;100.00;95637.72;7395661;19;20422;-88
2023/12/26 10:07:36;;;;;;;3.80;2.30;;;;;;;8.80;100.00;95608.00;7398947;19;20893;-89
2023/12/26 10:10:21;;;;;;;3.57;1.93;;;;;;;9.28;100.00;95670.75;7397444;19;20365;-89
2023/12/26 10:13:02;;;;;;;2.90;2.20;;;;;;;8.65;100.00;95602.09;7395280;19;20901;-89
2023/12/26 10:15:43;;;;;;;8.40;2.80;;;;;;;8.90;100.00;95644.31;7397043;19;20376;-88
2023/12/26 10:18:27;;;;;;;5.07;2.80;;;;;;;9.01;100.00;95658.69;7396886;19;20392;-89
2023/12/26 10:21:08;;;;;;;4.40;2.40;;;;;;;8.90;100.00;95639.09;7396454;19;20368;-88
2023/12/26 10:23:50;;;;;;;3.70;3.07;;;;;;;8.74;100.00;95625.66;7394951;19;20409;-88
2023/12/26 10:26:31;;;;;;;4.27;2.60;;;;;;;8.79;100.00;95612.44;7396672;19;20361;-88
2023/12/26 10:29:13;;;;;;;7.43;2.13;;;;;;;9.13;100.00;95674.56;7396314;19;20361;-89
2023/12/26 10:32:01;;;;;;;5.20;2.30;;;;;;;9.25;100.00;95690.47;7397471;19;20380;-88
2023/12/26 10:34:42;;;;;;;10.30;2.87;;;;;;;9.43;100.00;95717.47;7396418;19;20373;-88
2023/12/26 10:37:24;;;;;;;8.50;3.80;;;;;;;8.95;100.00;95620.66;7396107;19;20664;-84
2023/12/26 10:40:06;;;;;;;4.73;2.50;;;;;;;10.04;100.00;95783.13;7397091;19;20377;-85
2023/12/26 10:42:53;;;;;;;2.73;1.70;;;;;;;9.27;100.00;95665.84;7397073;19;20415;-85
2023/12/26 10:45:36;;;;;;;3.27;1.63;;;;;;;9.28;100.00;95675.22;7397646;19;20344;-85
2023/12/26 10:48:43;;;;;;;4.10;2.87;;;;;;;9.60;100.00;95729.84;7396969;19;20389;-87
2023/12/26 10:51:25;;;;;;;5.90;4.50;;;;;;;9.13;100.00;95651.00;7396377;19;20412;-86
2023/12/26 10:54:09;;;;;;;3.43;3.13;;;;;;;10.08;100.00;95790.03;7396690;19;20395;-86
2023/12/26 10:56:51;;;;;;;4.23;2.00;;;;;;;10.05;100.00;95801.16;7397451;19;20389;-86
2023/12/26 10:59:32;;;;;;;7.10;2.10;;;;;;;9.54;100.00;95704.88;7396413;19;20389;-86
2023/12/26 11:02:13;;;;;;;4.17;2.30;;;;;;;9.59;100.00;95730.16;7395013;19;20400;-86
2023/12/26 11:04:57;;;;;;;6.40;1.90;;;;;;;9.36;100.00;95684.97;7394269;19;20711;-86
2023/12/26 11:07:38;;;;;;;7.77;3.80;;;;;;;9.01;100.00;95624.66;7394036;19;20383;-90
2023/12/26 11:10:20;;;;;;;6.60;2.87;;;;;;;9.56;100.00;95687.00;7394860;19;21080;-90
2023/12/26 11:13:01;;;;;;;1.73;1.50;;;;;;;9.15;100.00;95619.28;7395269;19;20709;-89
2023/12/26 11:15:44;;;;;;;6.70;3.03;;;;;;;9.14;100.00;95605.44;7395008;19;20865;-90
2023/12/26 11:18:27;;;;;;;4.10;2.63;;;;;;;9.66;100.00;95685.94;7394819;19;20409;-90
2023/12/26 11:21:08;;;;;;;3.90;1.80;;;;;;;9.50;100.00;95677.75;7395563;19;20377;-90
2023/12/26 11:23:50;;;;;;;25.23;17.93;;;;;;;9.25;100.00;95632.09;7395233;19;20389;-90
2023/12/26 11:26:33;;;;;;;4.00;2.30;;;;;;;9.64;100.00;95672.38;7395400;19;20395;-90
2023/12/26 11:29:14;;;;;;;1.80;1.70;;;;;;;9.67;100.00;95690.88;7394795;19;20384;-90
2023/12/26 11:31:56;;;;;;;8.33;1.90;;;;;;;9.62;100.00;95675.31;7393651;19;20412;-90
2023/12/26 11:34:38;;;;;;;4.27;1.73;;;;;;;9.75;100.00;95700.59;7395070;19;20870;-90
2023/12/26 11:37:19;;;;;;;1.77;1.53;;;;;;;9.03;100.00;95596.31;7394491;19;20389;-90
2023/12/26 11:40:01;;;;;;;3.60;1.63;;;;;;;9.61;100.00;95668.53;7394430;19;20379;-90
2023/12/26 11:42:43;;;;;;;8.97;2.97;;;;;;;9.54;100.00;95663.72;7393668;19;20420;-90
2023/12/26 11:45:24;;;;;;;1.63;1.20;;;;;;;8.95;100.00;95584.78;7395955;19;20697;-92
2023/12/26 11:48:05;;;;;;;2.30;1.90;;;;;;;9.79;100.00;95711.22;7402346;19;20379;-93
2023/12/26 11:50:55;;;;;;;3.93;1.60;;;;;;;10.06;100.00;95750.25;7404168;19;20875;-93
2023/12/26 11:53:36;;;;;;;5.03;2.50;;;;;;;10.25;100.00;95767.56;7405372;19;20384;-93
2023/12/26 11:56:20;;;;;;;1.50;1.30;;;;;;;8.97;100.00;95555.69;7403927;19;20353;-94
2023/12/26 11:59:04;;;;;;;2.87;1.70;;;;;;;9.52;100.00;95659.88;7404069;19;20364;-92
2023/12/26 12:01:47;;;;;;;6.23;2.50;;;;;;;10.03;100.00;95731.75;7403300;19;20420;-93
2023/12/26 12:04:36;;;;;;;5.20;1.50;;;;;;;9.49;100.00;95661.25;7401581;19;20364;-93
2023/12/26 12:07:26;;;;;;;3.60;1.53;;;;;;;9.06;100.00;95600.19;7403205;19;20385;-92
2023/12/26 12:10:17;;;;;;;2.40;1.57;;;;;;;9.83;100.00;95717.38;7405271;19;20368;-93
2023/12/26 12:13:03;;;;;;;2.17;1.57;;;;;;;9.86;100.00;95711.56;7406413;19;20436;-93
2023/12/26 12:15:47;;;;;;;3.03;2.47;;;;;;;9.93;100.00;95719.72;7405213;19;20420;-92
2023/12/26 12:18:33;;;;;;;3.87;1.90;;;;;;;9.68;100.00;95676.69;7405568;19;20376;-93
2023/12/26 12:21:16;;;;;;;6.00;4.13;;;;;;;9.81;100.00;95722.16;7402382;19;20897;-93
2023/12/26 12:23:57;;;;;;;2.70;1.80;;;;;;;9.71;100.00;95735.59;7400534;19;20407;-92
2023/12/26 12:27:00;;;;;;;2.10;1.70;;;;;;;10.10;100.00;95805.47;7401395;19;20396;-92
2023/12/26 12:29:58;;;;;;;2.00;1.80;;;;;;;9.42;100.00;95705.47;7401830;19;20355;-92
2023/12/26 12:32:39;;;;;;;4.00;1.10;;;;;;;9.05;100.00;95651.00;7399798;19;20938;-92
2023/12/26 12:35:20;;;;;;;3.23;1.03;;;;;;;9.34;100.00;95689.75;7401543;19;20391;-92
2023/12/26 12:38:01;;;;;;;2.10;1.33;;;;;;;9.10;100.00;95651.63;7400813;19;20409;-92
2023/12/26 12:40:45;;;;;;;23.07;11.80;;;;;;;8.73;100.00;95605.78;7404063;19;20393;-91